Ilyas Araz — TCAS9 — position and weather

sailwx.info

Track history (hours):
 
Tides and Currents Weather Stations Pressure Air Temp Water Temp Dewpoint Dewpoint Depression Visibility Wind Speed Wind Dir Waves Ship Positions

Ilyas Araz

Last reported at 2014-Dec-02 06:22 UTC. Time now 2014-Dec-19 07:13 UTC.
Position N 41°17' E 029°39'.
Warning: this ship's position is 17 days out of date.

Length 64 m; draft 5.4 m.

Type: Cargo ship. MMSI: 271002108.

Date/timePositionNaut miles runAvg speedWind from/ knotsBaromVisibWave heightAir tempDewpointWater temp
2014-Dec-02 06:22N 41°17' E 029°39'6 7.6
2014-Dec-02 05:33N 41°17' E 029°31'8 7.6
2014-Dec-02 04:33N 41°17' E 029°20'24 5.9
2014-Dec-02 00:25N 40°56' E 029°02'8 8.8
2014-Dec-01 23:33N 40°53' E 029°11'0 0.4
2014-Dec-01 22:25N 40°53' E 029°12'0 0.0
2014-Dec-01 21:25N 40°53' E 029°12'0 0.0
2014-Dec-01 20:13N 40°53' E 029°12'0 0.0
2014-Dec-01 19:31N 40°53' E 029°12'0 0.0
2014-Dec-01 18:31N 40°53' E 029°12'0 0.0
2014-Dec-01 17:25N 40°53' E 029°12'0 0.0
2014-Dec-01 16:19N 40°53' E 029°12'0 0.0
2014-Dec-01 15:31N 40°53' E 029°12'0 0.0
2014-Dec-01 14:31N 40°53' E 029°12'0 0.0
2014-Dec-01 13:31N 40°53' E 029°12'0 0.0
2014-Dec-01 12:25N 40°53' E 029°12'0 0.0
2014-Dec-01 11:31N 40°53' E 029°12'6 6.0
2014-Dec-01 10:33N 40°47' E 029°15'  
2014-Nov-28 02:32N 40°41' E 029°20'9 9.1
2014-Nov-28 01:31N 40°41' E 029°08'  
Track history (hours):
 
Tides and Currents Weather Stations Pressure Air Temp Water Temp Dewpoint Dewpoint Depression Visibility Wind Speed Wind Dir Waves Ship Positions

Ilyas Araz

Last reported at 2014-Dec-02 06:22 UTC. Time now 2014-Dec-19 07:13 UTC.
Position N 41°17' E 029°39'.
Warning: this ship's position is 17 days out of date.

Length 64 m; draft 5.4 m.

Type: Cargo ship. MMSI: 271002108.

Date/timePositionNaut miles runAvg speedWind from/ knotsBaromVisibWave heightAir tempDewpointWater temp
2014-Dec-02 06:22N 41°17' E 029°39'6 7.6
2014-Dec-02 05:33N 41°17' E 029°31'8 7.6
2014-Dec-02 04:33N 41°17' E 029°20'24 5.9
2014-Dec-02 00:25N 40°56' E 029°02'8 8.8
2014-Dec-01 23:33N 40°53' E 029°11'0 0.4
2014-Dec-01 22:25N 40°53' E 029°12'0 0.0
2014-Dec-01 21:25N 40°53' E 029°12'0 0.0
2014-Dec-01 20:13N 40°53' E 029°12'0 0.0
2014-Dec-01 19:31N 40°53' E 029°12'0 0.0
2014-Dec-01 18:31N 40°53' E 029°12'0 0.0
2014-Dec-01 17:25N 40°53' E 029°12'0 0.0
2014-Dec-01 16:19N 40°53' E 029°12'0 0.0
2014-Dec-01 15:31N 40°53' E 029°12'0 0.0
2014-Dec-01 14:31N 40°53' E 029°12'0 0.0
2014-Dec-01 13:31N 40°53' E 029°12'0 0.0
2014-Dec-01 12:25N 40°53' E 029°12'0 0.0
2014-Dec-01 11:31N 40°53' E 029°12'6 6.0
2014-Dec-01 10:33N 40°47' E 029°15'  
2014-Nov-28 02:32N 40°41' E 029°20'9 9.1
2014-Nov-28 01:31N 40°41' E 029°08'  

Dump ship's entire track history